createdAt,value
2018-10-09T00:01:37.973Z,22.40
2018-10-09T00:04:12.605Z,18.90
2018-10-09T00:06:47.154Z,21.93
2018-10-09T00:09:21.887Z,20.67
2018-10-09T00:11:56.848Z,22.73
2018-10-09T00:14:31.346Z,19.80
2018-10-09T00:17:06.192Z,25.90
2018-10-09T00:19:40.679Z,20.83
2018-10-09T00:22:15.314Z,27.57
2018-10-09T00:24:49.839Z,26.63
2018-10-09T00:27:24.496Z,22.20
2018-10-09T00:29:59.072Z,25.63
2018-10-09T00:32:33.944Z,26.30
2018-10-09T00:35:08.438Z,29.40
2018-10-09T00:37:43.398Z,25.77
2018-10-09T00:40:18.186Z,24.93
2018-10-09T00:42:53.018Z,26.70
2018-10-09T00:45:27.526Z,27.53
2018-10-09T00:48:02.294Z,27.07
2018-10-09T00:50:36.779Z,27.83
2018-10-09T00:53:11.314Z,23.20
2018-10-09T00:55:45.962Z,27.03
2018-10-09T00:58:20.550Z,27.23
2018-10-09T01:00:55.186Z,21.77
2018-10-09T01:03:29.802Z,25.47
2018-10-09T01:06:04.367Z,24.77
2018-10-09T01:08:38.875Z,24.43
2018-10-09T01:11:13.479Z,26.97
2018-10-09T01:13:48.202Z,25.10
2018-10-09T01:16:23.068Z,25.53
2018-10-09T01:18:57.691Z,25.73
2018-10-09T01:21:32.354Z,23.93
2018-10-09T01:24:06.920Z,23.90
2018-10-09T01:26:41.640Z,22.73
2018-10-09T01:29:16.347Z,26.47
2018-10-09T01:31:50.965Z,22.60
2018-10-09T01:34:25.635Z,25.10
2018-10-09T01:37:00.309Z,28.70
2018-10-09T01:39:34.998Z,22.97
2018-10-09T01:42:09.578Z,23.50
2018-10-09T01:44:44.342Z,25.47
2018-10-09T01:47:18.799Z,25.07
2018-10-09T01:49:53.565Z,27.53
2018-10-09T01:52:28.254Z,30.77
2018-10-09T01:55:02.834Z,34.97
2018-10-09T01:57:37.515Z,31.70
2018-10-09T02:00:12.227Z,29.50
2018-10-09T02:02:47.055Z,29.20
2018-10-09T02:05:21.656Z,26.77
2018-10-09T02:07:56.253Z,30.60
2018-10-09T02:10:30.928Z,28.37
2018-10-09T02:13:06.083Z,30.30
2018-10-09T02:15:40.638Z,34.70
2018-10-09T02:18:15.123Z,27.13
2018-10-09T02:23:47.594Z,34.90
2018-10-09T02:26:22.756Z,35.03
2018-10-09T02:28:57.988Z,35.60
2018-10-09T02:31:33.079Z,32.27
2018-10-09T02:34:07.928Z,38.40
2018-10-09T02:36:42.971Z,40.20
2018-10-09T02:39:17.977Z,36.20
2018-10-09T02:41:53.349Z,31.70
2018-10-09T02:44:28.645Z,30.93
2018-10-09T02:47:03.680Z,29.77
2018-10-09T02:49:38.629Z,25.60
2018-10-09T02:52:13.547Z,28.60
2018-10-09T02:54:49.024Z,21.60
2018-10-09T02:57:24.271Z,23.97
2018-10-09T02:59:59.374Z,31.30
2018-10-09T03:02:34.291Z,26.13
2018-10-09T03:05:09.691Z,25.57
2018-10-09T03:07:44.659Z,24.00
2018-10-09T03:10:20.066Z,20.23
2018-10-09T03:12:55.055Z,27.13
2018-10-09T03:15:30.205Z,27.30
2018-10-09T03:18:05.435Z,26.50
2018-10-09T03:20:40.402Z,33.67
2018-10-09T03:23:15.238Z,30.83
2018-10-09T03:25:50.124Z,27.53
2018-10-09T03:28:25.135Z,27.97
2018-10-09T03:31:00.166Z,26.60
2018-10-09T03:33:35.184Z,27.30
2018-10-09T03:36:10.073Z,27.23
2018-10-09T03:38:45.046Z,24.77
2018-10-09T03:41:20.071Z,25.27
2018-10-09T03:43:54.874Z,25.40
2018-10-09T03:46:29.872Z,24.67
2018-10-09T03:49:04.780Z,25.87
2018-10-09T03:51:39.680Z,24.60
2018-10-09T03:54:14.738Z,26.93
2018-10-09T03:56:49.722Z,21.63
2018-10-09T03:59:24.720Z,20.90
2018-10-09T04:01:59.813Z,20.60
2018-10-09T04:04:34.896Z,21.33
2018-10-09T04:07:09.909Z,23.20
2018-10-09T04:09:44.904Z,22.43
2018-10-09T04:12:19.815Z,23.10
2018-10-09T04:14:54.772Z,22.53
2018-10-09T04:17:29.922Z,24.80
2018-10-09T04:20:05.791Z,20.50
2018-10-09T04:22:40.643Z,21.97
2018-10-09T04:25:15.485Z,25.83
2018-10-09T04:27:50.411Z,27.17
2018-10-09T04:30:25.577Z,28.07
2018-10-09T04:33:00.626Z,25.50
2018-10-09T04:35:35.814Z,27.77
2018-10-09T04:38:10.934Z,23.63
2018-10-09T04:40:39.965Z,26.90
2018-10-09T04:43:09.117Z,28.60
2018-10-09T04:45:38.259Z,27.97
2018-10-09T04:48:07.624Z,30.73
2018-10-09T04:50:36.695Z,30.50
2018-10-09T04:53:05.787Z,32.13
2018-10-09T04:55:34.791Z,34.20
2018-10-09T04:58:03.826Z,25.57
2018-10-09T05:00:32.899Z,28.77
2018-10-09T05:03:01.939Z,27.90
2018-10-09T05:05:30.998Z,33.97
2018-10-09T05:08:00.044Z,29.23
2018-10-09T05:10:29.117Z,23.57
2018-10-09T05:12:58.190Z,27.27
2018-10-09T05:15:27.287Z,23.30
2018-10-09T05:17:56.332Z,28.33
2018-10-09T05:20:25.402Z,25.50
2018-10-09T05:22:54.455Z,27.87
2018-10-09T05:25:45.955Z,23.47
2018-10-09T05:28:15.019Z,25.37
2018-10-09T05:30:44.096Z,26.57
2018-10-09T05:33:13.137Z,28.37
2018-10-09T05:35:42.189Z,24.83
2018-10-09T05:38:11.470Z,29.00
2018-10-09T05:40:40.544Z,29.57
2018-10-09T05:43:09.607Z,26.93
2018-10-09T05:45:39.200Z,25.50
2018-10-09T05:48:09.544Z,28.27
2018-10-09T05:50:38.695Z,26.87
2018-10-09T05:53:07.747Z,24.97
2018-10-09T05:55:37.269Z,24.93
2018-10-09T05:58:06.613Z,26.07
2018-10-09T06:00:35.607Z,26.40
2018-10-09T06:03:04.664Z,25.97
2018-10-09T06:05:33.732Z,23.00
2018-10-09T06:08:02.774Z,25.20
2018-10-09T06:10:31.896Z,26.67
2018-10-09T06:13:01.053Z,24.60
2018-10-09T06:15:30.217Z,25.13
2018-10-09T06:17:59.263Z,22.57
2018-10-09T06:20:28.287Z,20.83
2018-10-09T06:22:57.325Z,23.40
2018-10-09T06:25:26.428Z,21.50
2018-10-09T06:27:55.525Z,24.30
2018-10-09T06:30:24.823Z,24.73
2018-10-09T06:32:53.892Z,25.33
2018-10-09T06:35:22.943Z,26.40
2018-10-09T06:37:52.223Z,23.10
2018-10-09T06:40:21.343Z,22.57
2018-10-09T06:42:51.046Z,24.67
2018-10-09T06:45:20.076Z,22.13
2018-10-09T06:47:49.192Z,26.17
2018-10-09T06:50:18.136Z,23.93
2018-10-09T06:52:47.207Z,27.43
2018-10-09T06:55:16.280Z,24.20
2018-10-09T06:57:45.364Z,25.40
2018-10-09T07:00:14.647Z,29.50
2018-10-09T07:02:43.700Z,27.50
2018-10-09T07:05:12.816Z,24.93
2018-10-09T07:07:41.999Z,24.20
2018-10-09T07:10:11.075Z,26.43
2018-10-09T07:12:40.132Z,22.07
2018-10-09T07:15:09.398Z,24.83
2018-10-09T07:17:38.456Z,26.73
2018-10-09T07:20:07.576Z,21.43
2018-10-09T07:22:36.592Z,19.97
2018-10-09T07:25:05.871Z,20.70
2018-10-09T07:27:34.918Z,23.20
2018-10-09T07:30:04.443Z,19.63
2018-10-09T07:32:33.527Z,21.33
2018-10-09T07:35:02.684Z,21.07
2018-10-09T07:37:31.811Z,18.67
2018-10-09T07:40:00.890Z,19.77
2018-10-09T07:42:30.009Z,27.43
2018-10-09T07:44:59.112Z,19.40
2018-10-09T07:47:28.155Z,24.30
2018-10-09T07:49:57.207Z,20.63
2018-10-09T07:52:26.286Z,19.40
2018-10-09T07:54:55.332Z,19.07
2018-10-09T07:57:24.391Z,21.33
2018-10-09T07:59:53.596Z,16.93
2018-10-09T08:02:22.755Z,17.07
2018-10-09T08:04:52.315Z,20.63
2018-10-09T08:07:21.359Z,16.93
2018-10-09T08:09:50.467Z,16.80
2018-10-09T08:12:19.522Z,18.27
2018-10-09T08:14:48.588Z,15.47
2018-10-09T08:17:17.645Z,15.37
2018-10-09T08:19:47.007Z,15.77
2018-10-09T08:22:16.112Z,13.93
2018-10-09T08:24:45.263Z,17.00
2018-10-09T08:27:14.366Z,12.40
2018-10-09T08:29:43.408Z,14.40
2018-10-09T08:32:12.464Z,16.67
2018-10-09T08:34:41.591Z,17.83
2018-10-09T08:37:10.567Z,15.13
2018-10-09T08:39:39.611Z,15.20
2018-10-09T08:42:08.690Z,15.27
2018-10-09T08:44:37.747Z,14.70
2018-10-09T08:47:06.932Z,17.10
2018-10-09T08:49:35.952Z,22.47
2018-10-09T08:52:05.257Z,15.70
2018-10-09T08:54:34.328Z,16.57
2018-10-09T08:57:03.389Z,17.50
2018-10-09T08:59:32.587Z,16.67
2018-10-09T09:02:01.660Z,15.27
2018-10-09T09:04:30.680Z,16.30
2018-10-09T09:06:59.744Z,16.50
2018-10-09T09:09:28.772Z,16.63
2018-10-09T09:11:57.886Z,18.87
2018-10-09T09:14:26.919Z,16.13
2018-10-09T09:16:55.983Z,15.90
2018-10-09T09:19:25.012Z,18.00
2018-10-09T09:21:54.097Z,17.93
2018-10-09T09:24:23.144Z,16.10
2018-10-09T09:26:52.249Z,16.53
2018-10-09T09:29:21.242Z,15.93
2018-10-09T09:31:50.464Z,15.90
2018-10-09T09:34:20.189Z,15.33
2018-10-09T09:36:49.491Z,15.47
2018-10-09T09:39:18.741Z,17.40
2018-10-09T09:41:48.305Z,16.50
2018-10-09T09:44:17.908Z,15.97
2018-10-09T09:46:47.369Z,17.53
2018-10-09T09:49:16.696Z,18.23
2018-10-09T09:51:46.226Z,17.73
2018-10-09T09:54:15.681Z,18.50
2018-10-09T09:56:44.780Z,17.37
2018-10-09T09:59:13.814Z,17.37
2018-10-09T10:01:43.810Z,15.73
2018-10-09T10:04:13.858Z,15.77
2018-10-09T10:06:43.357Z,15.63
2018-10-09T10:09:12.483Z,15.13
2018-10-09T10:11:41.491Z,14.90
2018-10-09T10:14:10.613Z,17.57
2018-10-09T10:16:39.667Z,14.83
2018-10-09T10:19:08.700Z,15.23
2018-10-09T10:21:37.759Z,19.40
2018-10-09T10:24:06.981Z,16.00
2018-10-09T10:26:36.047Z,16.53
2018-10-09T10:29:05.270Z,17.33
2018-10-09T10:31:34.252Z,18.70
2018-10-09T10:34:03.819Z,19.23
2018-10-09T10:36:32.997Z,18.20
2018-10-09T10:39:02.745Z,17.97
2018-10-09T10:41:31.764Z,17.00
2018-10-09T10:44:00.876Z,14.97
2018-10-09T10:46:35.310Z,18.13
2018-10-09T10:49:05.699Z,17.87
2018-10-09T10:51:35.187Z,18.07
2018-10-09T10:54:04.354Z,19.77
2018-10-09T10:56:34.905Z,18.20
2018-10-09T10:59:04.152Z,18.43
2018-10-09T11:01:33.882Z,23.93
2018-10-09T11:04:03.621Z,17.60
2018-10-09T11:06:32.657Z,18.37
2018-10-09T11:09:01.738Z,21.43
2018-10-09T11:11:30.750Z,19.47
2018-10-09T11:14:00.400Z,20.57
2018-10-09T11:16:29.477Z,20.27
2018-10-09T11:18:59.160Z,17.93
2018-10-09T11:21:28.264Z,19.37
2018-10-09T11:23:57.354Z,18.40
2018-10-09T11:26:27.571Z,18.97
2018-10-09T11:28:56.622Z,18.23
2018-10-09T11:31:26.067Z,17.80
2018-10-09T11:33:55.108Z,18.87
2018-10-09T11:36:24.147Z,17.67
2018-10-09T11:38:53.579Z,19.57
2018-10-09T11:41:23.008Z,17.60
2018-10-09T11:43:52.115Z,16.80
2018-10-09T11:46:21.163Z,17.67
2018-10-09T11:48:50.199Z,17.20
2018-10-09T11:51:19.304Z,19.67
2018-10-09T11:53:48.490Z,18.00
2018-10-09T11:56:17.603Z,17.67
2018-10-09T11:58:46.926Z,18.20
2018-10-09T12:01:15.955Z,18.43
2018-10-09T12:03:45.105Z,18.27
2018-10-09T12:06:14.301Z,18.67
2018-10-09T12:08:43.439Z,20.20
2018-10-09T12:11:12.471Z,17.30
2018-10-09T12:13:41.532Z,17.33
2018-10-09T12:16:10.571Z,18.23
2018-10-09T12:18:39.623Z,14.80
2018-10-09T12:21:08.787Z,15.93
2018-10-09T12:23:38.187Z,15.40
2018-10-09T12:26:07.504Z,15.77
2018-10-09T12:28:36.579Z,16.20
2018-10-09T12:31:05.817Z,15.73
2018-10-09T12:33:35.561Z,15.07
2018-10-09T12:36:06.064Z,15.00
2018-10-09T12:38:35.111Z,15.43
2018-10-09T12:41:04.824Z,15.33
2018-10-09T12:43:33.855Z,16.00
2018-10-09T12:46:03.053Z,17.00
2018-10-09T12:48:32.156Z,15.77
2018-10-09T12:51:01.217Z,16.47
2018-10-09T12:53:31.615Z,16.30
2018-10-09T12:56:00.697Z,16.10
2018-10-09T12:58:29.770Z,17.33
2018-10-09T13:00:58.805Z,16.47
2018-10-09T13:03:28.003Z,16.60
2018-10-09T13:05:57.234Z,16.53
2018-10-09T13:08:26.287Z,16.20
2018-10-09T13:10:55.470Z,17.37
2018-10-09T13:13:24.612Z,18.90
2018-10-09T13:15:53.819Z,16.33
2018-10-09T13:18:22.847Z,16.40
2018-10-09T13:20:52.255Z,16.00
2018-10-09T13:23:21.191Z,16.00
2018-10-09T13:25:50.309Z,16.47
2018-10-09T13:28:19.495Z,16.87
2018-10-09T13:30:48.665Z,18.90
2018-10-09T13:33:17.725Z,18.20
2018-10-09T13:35:46.848Z,16.93
2018-10-09T13:38:15.973Z,17.87
2018-10-09T13:40:44.963Z,16.53
2018-10-09T13:43:14.034Z,17.50
2018-10-09T13:45:43.193Z,20.73
2018-10-09T13:48:12.602Z,20.23
2018-10-09T13:50:41.732Z,17.03
2018-10-09T13:53:10.798Z,18.90
2018-10-09T13:55:39.868Z,18.87
2018-10-09T13:58:08.936Z,15.87
2018-10-09T14:00:38.161Z,20.90
2018-10-09T14:03:07.765Z,18.07
2018-10-09T14:05:36.864Z,17.77
2018-10-09T14:08:06.857Z,18.13
2018-10-09T14:10:35.928Z,18.17
2018-10-09T14:13:05.091Z,17.90
2018-10-09T14:15:34.806Z,18.73
2018-10-09T14:18:04.350Z,16.53
2018-10-09T14:20:33.623Z,17.43
2018-10-09T14:23:02.753Z,18.70
2018-10-09T14:25:32.190Z,19.23
2018-10-09T14:28:01.461Z,16.93
2018-10-09T14:30:30.698Z,17.60
2018-10-09T14:32:59.918Z,18.40
2018-10-09T14:35:28.976Z,17.23
2018-10-09T14:37:57.995Z,16.93
2018-10-09T14:40:27.100Z,16.40
2018-10-09T14:42:56.119Z,18.97
2018-10-09T14:45:25.143Z,18.43
2018-10-09T14:47:54.167Z,18.67
2018-10-09T14:50:23.223Z,16.03
2018-10-09T14:52:52.415Z,17.03
2018-10-09T14:55:21.457Z,20.43
2018-10-09T14:57:50.600Z,18.53
2018-10-09T15:00:19.909Z,18.47
2018-10-09T15:02:49.106Z,19.87
2018-10-09T15:05:18.214Z,18.43
2018-10-09T15:07:48.470Z,18.07
2018-10-09T15:10:17.683Z,17.40
2018-10-09T15:12:46.800Z,18.23
2018-10-09T15:15:15.948Z,19.67
2018-10-09T15:17:45.092Z,17.60
2018-10-09T15:20:14.166Z,18.00
2018-10-09T15:22:44.196Z,18.23
2018-10-09T15:25:13.988Z,19.80
2018-10-09T15:27:43.453Z,17.63
2018-10-09T15:30:12.735Z,17.70
2018-10-09T15:32:41.963Z,20.37
2018-10-09T15:35:12.092Z,18.03
2018-10-09T15:37:41.305Z,20.10
2018-10-09T15:40:11.783Z,17.23
2018-10-09T15:42:41.152Z,18.23
2018-10-09T15:45:10.479Z,17.77
2018-10-09T15:47:39.652Z,17.87
2018-10-09T15:50:08.751Z,15.50
2018-10-09T15:52:37.886Z,15.30
2018-10-09T15:55:07.652Z,18.23
2018-10-09T15:57:37.776Z,19.80
2018-10-09T16:00:07.000Z,16.73
2018-10-09T16:02:36.199Z,17.00
2018-10-09T16:05:05.324Z,18.80
2018-10-09T16:07:34.417Z,18.53
2018-10-09T16:10:03.566Z,18.00
2018-10-09T16:12:32.685Z,18.13
2018-10-09T16:15:02.473Z,18.03
2018-10-09T16:17:31.555Z,20.53
2018-10-09T16:20:00.785Z,23.03
2018-10-09T16:22:29.975Z,19.33
2018-10-09T16:25:01.380Z,18.20
2018-10-09T16:27:30.589Z,20.37
2018-10-09T16:29:59.690Z,21.37
2018-10-09T16:32:28.874Z,19.53
2018-10-09T16:34:57.888Z,20.53
2018-10-09T16:37:27.044Z,21.20
2018-10-09T16:39:56.099Z,20.93
2018-10-09T16:42:25.194Z,18.93
2018-10-09T16:44:54.409Z,19.13
2018-10-09T16:47:23.548Z,20.83
2018-10-09T16:49:52.596Z,16.33
2018-10-09T16:52:22.071Z,17.90
2018-10-09T16:54:51.108Z,23.80
2018-10-09T16:57:20.227Z,15.30
2018-10-09T16:59:49.252Z,16.20
2018-10-09T17:02:18.296Z,17.83
2018-10-09T17:04:49.488Z,19.20
2018-10-09T17:07:19.006Z,21.30
2018-10-09T17:09:48.106Z,20.43
2018-10-09T17:12:17.247Z,21.50
2018-10-09T17:14:46.968Z,22.43
2018-10-09T17:17:16.180Z,17.00
2018-10-09T17:19:45.599Z,17.63
2018-10-09T17:22:14.780Z,18.37
2018-10-09T17:24:43.905Z,18.97
2018-10-09T17:27:13.374Z,17.70
2018-10-09T17:29:42.398Z,20.80
2018-10-09T17:32:11.459Z,19.13
2018-10-09T17:34:40.487Z,18.13
2018-10-09T17:37:09.556Z,18.43
2018-10-09T17:39:38.602Z,22.03
2018-10-09T17:42:07.676Z,19.77
2018-10-09T17:44:36.641Z,19.03
2018-10-09T17:47:08.771Z,19.73
2018-10-09T17:49:39.272Z,19.40
2018-10-09T17:52:08.807Z,18.53
2018-10-09T17:54:37.827Z,24.67
2018-10-09T17:57:06.955Z,18.13
2018-10-09T17:59:36.037Z,17.37
2018-10-09T18:02:05.088Z,21.03
2018-10-09T18:04:34.289Z,17.70
2018-10-09T18:07:03.427Z,19.30
2018-10-09T18:09:32.428Z,17.80
2018-10-09T18:12:01.571Z,18.03
2018-10-09T18:14:30.629Z,18.33
2018-10-09T18:16:59.760Z,18.37
2018-10-09T18:19:28.796Z,22.37
2018-10-09T18:21:57.836Z,19.00
2018-10-09T18:24:26.848Z,17.90
2018-10-09T18:26:55.902Z,19.10
2018-10-09T18:29:24.901Z,21.60
2018-10-09T18:31:53.999Z,17.63
2018-10-09T18:34:23.046Z,18.90
2018-10-09T18:36:52.105Z,19.83
2018-10-09T18:39:21.133Z,19.20
2018-10-09T18:41:50.294Z,20.30
2018-10-09T18:44:19.183Z,21.30
2018-10-09T18:46:48.231Z,21.67
2018-10-09T18:49:17.317Z,20.63
2018-10-09T18:51:46.357Z,17.40
2018-10-09T18:54:15.462Z,18.77
2018-10-09T18:56:44.487Z,19.67
2018-10-09T18:59:13.567Z,21.80
2018-10-09T19:01:42.609Z,19.90
2018-10-09T19:04:11.743Z,21.03
2018-10-09T19:06:40.742Z,17.90
2018-10-09T19:09:11.319Z,18.07
2018-10-09T19:11:40.328Z,19.70
2018-10-09T19:14:09.339Z,18.73
2018-10-09T19:16:38.379Z,18.70
2018-10-09T19:19:07.433Z,26.70
2018-10-09T19:21:36.451Z,17.50
2018-10-09T19:24:05.497Z,20.07
2018-10-09T19:26:34.543Z,19.17
2018-10-09T19:29:03.584Z,19.87
2018-10-09T19:31:32.608Z,22.10
2018-10-09T19:34:01.701Z,18.87
2018-10-09T19:36:30.686Z,20.77
2018-10-09T19:38:59.811Z,19.77
2018-10-09T19:41:28.885Z,18.63
2018-10-09T19:43:58.036Z,19.17
2018-10-09T19:46:27.069Z,18.70
2018-10-09T19:48:56.103Z,20.27
2018-10-09T19:51:25.220Z,20.97
2018-10-09T19:53:54.216Z,22.00
2018-10-09T19:56:23.275Z,21.73
2018-10-09T19:58:52.411Z,20.97
2018-10-09T20:01:21.581Z,21.97
2018-10-09T20:03:50.762Z,22.20
2018-10-09T20:06:19.815Z,21.57
2018-10-09T20:08:48.933Z,21.33
2018-10-09T20:11:18.008Z,24.40
2018-10-09T20:13:47.086Z,21.97
2018-10-09T20:16:21.873Z,23.10
2018-10-09T20:18:56.435Z,23.70
2018-10-09T20:21:30.908Z,20.97
2018-10-09T20:24:06.093Z,21.70
2018-10-09T20:26:40.596Z,21.37
2018-10-09T20:29:15.287Z,21.37
2018-10-09T20:31:50.040Z,20.87
2018-10-09T20:34:24.702Z,21.20
2018-10-09T20:36:59.647Z,21.60
2018-10-09T20:39:34.380Z,22.57
2018-10-09T20:42:09.035Z,23.90
2018-10-09T20:44:43.795Z,24.80
2018-10-09T20:47:22.516Z,21.50
2018-10-09T20:49:57.088Z,22.60
2018-10-09T20:52:33.689Z,23.17
2018-10-09T20:55:08.555Z,27.17
2018-10-09T20:57:43.139Z,24.10
2018-10-09T21:00:17.839Z,23.30
2018-10-09T21:02:52.423Z,20.80
2018-10-09T21:05:26.926Z,20.77
2018-10-09T21:08:01.427Z,22.40
2018-10-09T21:10:36.056Z,22.03
2018-10-09T21:13:10.722Z,19.67
2018-10-09T21:15:45.243Z,20.63
2018-10-09T21:18:20.358Z,21.20
2018-10-09T21:20:55.062Z,21.87
2018-10-09T21:23:29.827Z,19.33
2018-10-09T21:26:04.412Z,22.80
2018-10-09T21:28:39.036Z,23.70
2018-10-09T21:31:13.743Z,20.63
2018-10-09T21:33:48.403Z,21.10
2018-10-09T21:36:23.012Z,25.07
2018-10-09T21:38:57.714Z,19.47
2018-10-09T21:41:32.325Z,22.80
2018-10-09T21:44:07.175Z,22.80
2018-10-09T21:46:41.824Z,22.40
2018-10-09T21:49:16.555Z,24.50
2018-10-09T21:51:51.180Z,22.80
2018-10-09T21:54:25.710Z,27.37
2018-10-09T21:57:00.619Z,22.67
2018-10-09T21:59:35.244Z,20.50
2018-10-09T22:02:09.715Z,22.00
2018-10-09T22:04:44.547Z,20.57
2018-10-09T22:07:19.134Z,24.97
2018-10-09T22:09:53.971Z,22.33
2018-10-09T22:12:29.632Z,23.73
2018-10-09T22:15:04.768Z,20.87
2018-10-09T22:17:39.488Z,22.23
2018-10-09T22:20:14.166Z,23.17
2018-10-09T22:22:48.637Z,20.87
2018-10-09T22:25:23.248Z,21.50
2018-10-09T22:27:57.788Z,24.07
2018-10-09T22:30:32.295Z,22.23
2018-10-09T22:33:07.636Z,23.83
2018-10-09T22:35:42.260Z,22.70
2018-10-09T22:38:16.936Z,23.10
2018-10-09T22:40:51.415Z,25.47
2018-10-09T22:43:25.912Z,22.23
2018-10-09T22:46:00.647Z,24.50
2018-10-09T22:48:35.072Z,20.97
2018-10-09T22:51:09.668Z,24.47
2018-10-09T22:53:44.304Z,21.57
2018-10-09T22:56:19.062Z,21.63
2018-10-09T22:58:53.679Z,24.40
2018-10-09T23:01:28.321Z,21.90
2018-10-09T23:04:03.006Z,23.13
2018-10-09T23:06:37.699Z,23.30
2018-10-09T23:09:13.419Z,20.60
2018-10-09T23:11:48.003Z,19.97
2018-10-09T23:14:22.767Z,21.50
2018-10-09T23:16:57.471Z,22.67
2018-10-09T23:19:32.063Z,24.50
2018-10-09T23:22:06.784Z,19.53
2018-10-09T23:24:41.369Z,23.07
2018-10-09T23:27:16.082Z,21.60
2018-10-09T23:29:50.610Z,20.57
2018-10-09T23:32:25.358Z,22.90
2018-10-09T23:34:59.869Z,20.87
2018-10-09T23:37:34.489Z,23.77
2018-10-09T23:40:09.070Z,20.70
2018-10-09T23:42:43.832Z,22.20
2018-10-09T23:45:18.529Z,19.33
2018-10-09T23:47:57.232Z,22.13
2018-10-09T23:50:31.854Z,19.70
2018-10-09T23:53:06.656Z,25.10
2018-10-09T23:55:41.268Z,24.00
2018-10-09T23:58:15.832Z,29.10
